createdAt,value
2022-10-17T00:00:05.789Z,1018.18
2022-10-17T00:01:05.837Z,1018.19
2022-10-17T00:02:05.764Z,1018.23
2022-10-17T00:03:05.715Z,1018.28
2022-10-17T00:04:05.711Z,1018.28
2022-10-17T00:05:05.704Z,1018.32
2022-10-17T00:06:05.730Z,1018.30
2022-10-17T00:07:05.663Z,1018.39
2022-10-17T00:08:05.659Z,1018.34
2022-10-17T00:09:05.636Z,1018.40
2022-10-17T00:10:05.630Z,1018.38
2022-10-17T00:11:05.654Z,1018.36
2022-10-17T00:12:05.621Z,1018.39
2022-10-17T00:13:05.590Z,1018.38
2022-10-17T00:14:05.577Z,1018.37
2022-10-17T00:15:05.567Z,1018.42
2022-10-17T00:16:05.584Z,1018.48
2022-10-17T00:17:05.557Z,1018.43
2022-10-17T00:18:05.523Z,1018.46
2022-10-17T00:19:05.513Z,1018.41
2022-10-17T00:20:05.515Z,1018.42
2022-10-17T00:21:05.499Z,1018.43
2022-10-17T00:22:05.490Z,1018.35
2022-10-17T00:23:05.467Z,1018.39
2022-10-17T00:24:05.457Z,1018.40
2022-10-17T00:25:05.445Z,1018.43
2022-10-17T00:26:05.438Z,1018.47
2022-10-17T00:27:05.433Z,1018.49
2022-10-17T00:28:05.420Z,1018.53
2022-10-17T00:29:05.443Z,1018.52
2022-10-17T00:30:05.416Z,1018.58
2022-10-17T00:31:05.375Z,1018.63
2022-10-17T00:32:05.360Z,1018.58
2022-10-17T00:33:05.328Z,1018.55
2022-10-17T00:34:05.321Z,1018.54
2022-10-17T00:35:05.306Z,1018.53
2022-10-17T00:36:05.330Z,1018.50
2022-10-17T00:37:05.283Z,1018.54
2022-10-17T00:38:05.275Z,1018.49
2022-10-17T00:39:05.255Z,1018.50
2022-10-17T00:40:05.244Z,1018.48
2022-10-17T00:41:05.227Z,1018.55
2022-10-17T00:42:05.229Z,1018.51
2022-10-17T00:43:05.198Z,1018.54
2022-10-17T00:44:05.188Z,1018.49
2022-10-17T00:45:05.208Z,1018.56
2022-10-17T00:46:05.166Z,1018.58
2022-10-17T00:47:05.159Z,1018.58
2022-10-17T00:48:05.144Z,1018.58
2022-10-17T00:49:05.118Z,1018.55
2022-10-17T00:50:05.135Z,1018.54
2022-10-17T00:51:05.095Z,1018.53
2022-10-17T00:52:05.115Z,1018.47
2022-10-17T00:53:05.067Z,1018.48
2022-10-17T00:54:05.062Z,1018.44
2022-10-17T00:55:05.042Z,1018.48
2022-10-17T00:56:05.028Z,1018.51
2022-10-17T00:57:05.031Z,1018.57
2022-10-17T00:58:05.007Z,1018.60
2022-10-17T01:00:04.998Z,1018.68
2022-10-17T01:01:05.022Z,1018.64
2022-10-17T01:02:04.965Z,1018.67
2022-10-17T01:03:04.972Z,1018.74
2022-10-17T01:04:04.958Z,1018.77
2022-10-17T01:05:04.921Z,1018.77
2022-10-17T01:06:04.910Z,1018.84
2022-10-17T01:07:04.894Z,1018.81
2022-10-17T01:08:04.881Z,1018.88
2022-10-17T01:09:04.879Z,1018.86
2022-10-17T01:10:04.847Z,1018.86
2022-10-17T01:11:04.839Z,1018.90
2022-10-17T01:12:04.839Z,1018.87
2022-10-17T01:13:04.805Z,1018.84
2022-10-17T01:14:04.796Z,1018.89
2022-10-17T01:15:04.811Z,1018.85
2022-10-17T01:16:04.795Z,1018.84
2022-10-17T01:17:04.769Z,1018.76
2022-10-17T01:18:04.751Z,1018.74
2022-10-17T01:19:04.730Z,1018.69
2022-10-17T01:20:04.732Z,1018.70
2022-10-17T01:21:04.715Z,1018.64
2022-10-17T01:22:04.724Z,1018.65
2022-10-17T01:23:04.682Z,1018.58
2022-10-17T01:24:04.668Z,1018.60
2022-10-17T01:25:04.673Z,1018.56
2022-10-17T01:26:04.639Z,1018.61
2022-10-17T01:27:04.633Z,1018.54
2022-10-17T01:28:04.615Z,1018.60
2022-10-17T01:29:04.637Z,1018.57
2022-10-17T01:30:04.592Z,1018.54
2022-10-17T01:31:04.572Z,1018.47
2022-10-17T01:32:04.596Z,1018.49
2022-10-17T01:33:04.554Z,1018.53
2022-10-17T01:34:04.536Z,1018.50
2022-10-17T01:35:04.538Z,1018.53
2022-10-17T01:36:05.831Z,1018.46
2022-10-17T01:37:04.514Z,1018.43
2022-10-17T01:38:04.490Z,1018.52
2022-10-17T01:39:04.471Z,1018.60
2022-10-17T01:40:04.523Z,1018.48
2022-10-17T01:41:04.457Z,1018.51
2022-10-17T01:42:04.444Z,1018.51
2022-10-17T01:43:04.419Z,1018.54
2022-10-17T01:44:04.421Z,1018.48
2022-10-17T01:45:04.403Z,1018.44
2022-10-17T01:46:04.399Z,1018.33
2022-10-17T01:47:04.398Z,1018.35
2022-10-17T01:48:04.368Z,1018.34
2022-10-17T01:49:04.382Z,1018.33
2022-10-17T01:50:04.427Z,1018.33
2022-10-17T01:51:04.320Z,1018.37
2022-10-17T01:52:04.326Z,1018.40
2022-10-17T01:53:04.295Z,1018.39
2022-10-17T01:54:04.290Z,1018.43
2022-10-17T01:55:04.267Z,1018.35
2022-10-17T01:56:04.254Z,1018.39
2022-10-17T01:57:04.258Z,1018.38
2022-10-17T01:58:04.229Z,1018.28
2022-10-17T01:59:04.210Z,1018.24
2022-10-17T02:00:04.213Z,1018.21
2022-10-17T02:01:04.262Z,1018.23
2022-10-17T02:02:04.187Z,1018.24
2022-10-17T02:03:04.172Z,1018.16
2022-10-17T02:04:04.156Z,1018.21
2022-10-17T02:05:04.133Z,1018.17
2022-10-17T02:06:04.118Z,1018.12
2022-10-17T02:07:04.110Z,1018.07
2022-10-17T02:08:04.130Z,1018.11
2022-10-17T02:09:04.073Z,1018.01
2022-10-17T02:10:04.071Z,1018.03
2022-10-17T02:11:04.054Z,1017.99
2022-10-17T02:12:04.056Z,1017.99
2022-10-17T02:13:04.067Z,1017.93
2022-10-17T02:14:04.056Z,1018.00
2022-10-17T02:15:03.999Z,1017.97
2022-10-17T02:16:03.999Z,1017.98
2022-10-17T02:17:03.973Z,1018.06
2022-10-17T02:18:03.996Z,1018.02
2022-10-17T02:19:03.971Z,1017.98
2022-10-17T02:20:03.941Z,1017.96
2022-10-17T02:21:03.919Z,1017.97
2022-10-17T02:22:03.911Z,1017.98
2022-10-17T02:23:03.906Z,1017.93
2022-10-17T02:24:03.899Z,1017.96
2022-10-17T02:25:03.880Z,1017.95
2022-10-17T02:26:03.864Z,1018.00
2022-10-17T02:27:03.850Z,1017.91
2022-10-17T02:28:03.863Z,1017.87
2022-10-17T02:29:03.908Z,1017.90
2022-10-17T02:30:03.811Z,1017.90
2022-10-17T02:31:03.787Z,1017.92
2022-10-17T02:32:03.790Z,1017.83
2022-10-17T02:33:03.797Z,1017.82
2022-10-17T02:34:03.752Z,1017.82
2022-10-17T02:35:03.742Z,1017.72
2022-10-17T02:36:03.732Z,1017.76
2022-10-17T02:37:03.722Z,1017.76
2022-10-17T02:38:03.735Z,1017.81
2022-10-17T02:39:03.700Z,1017.85
2022-10-17T02:40:03.681Z,1017.84
2022-10-17T02:41:03.792Z,1017.81
2022-10-17T02:42:03.660Z,1017.84
2022-10-17T02:43:03.638Z,1017.85
2022-10-17T02:44:03.652Z,1017.81
2022-10-17T02:45:03.613Z,1017.75
2022-10-17T02:46:03.613Z,1017.82
2022-10-17T02:47:03.592Z,1017.72
2022-10-17T02:48:03.580Z,1017.73
2022-10-17T02:49:03.572Z,1017.72
2022-10-17T02:50:03.554Z,1017.61
2022-10-17T02:51:03.537Z,1017.62
2022-10-17T02:52:03.530Z,1017.63
2022-10-17T02:53:03.531Z,1017.67
2022-10-17T02:54:03.489Z,1017.68
2022-10-17T02:55:03.481Z,1017.62
2022-10-17T02:56:03.477Z,1017.59
2022-10-17T02:57:03.451Z,1017.62
2022-10-17T02:58:03.486Z,1017.61
2022-10-17T02:59:03.451Z,1017.57
2022-10-17T03:00:03.441Z,1017.59
2022-10-17T03:01:03.456Z,1017.55
2022-10-17T03:02:03.388Z,1017.59
2022-10-17T03:03:03.377Z,1017.62
2022-10-17T03:04:03.403Z,1017.49
2022-10-17T03:05:03.349Z,1017.47
2022-10-17T03:06:03.349Z,1017.50
2022-10-17T03:07:03.321Z,1017.42
2022-10-17T03:08:03.308Z,1017.42
2022-10-17T03:09:03.302Z,1017.46
2022-10-17T03:10:03.301Z,1017.55
2022-10-17T03:11:03.279Z,1017.55
2022-10-17T03:12:03.282Z,1017.69
2022-10-17T03:13:03.243Z,1017.59
2022-10-17T03:14:03.251Z,1017.54
2022-10-17T03:15:03.231Z,1017.47
2022-10-17T03:16:03.213Z,1017.56
2022-10-17T03:17:03.191Z,1017.52
2022-10-17T03:18:03.192Z,1017.53
2022-10-17T03:19:03.184Z,1017.47
2022-10-17T03:20:03.161Z,1017.42
2022-10-17T03:21:03.142Z,1017.43
2022-10-17T03:22:03.133Z,1017.37
2022-10-17T03:23:03.112Z,1017.41
2022-10-17T03:24:03.148Z,1017.39
2022-10-17T03:25:03.092Z,1017.44
2022-10-17T03:26:03.084Z,1017.42
2022-10-17T03:27:03.074Z,1017.43
2022-10-17T03:28:03.063Z,1017.42
2022-10-17T03:29:03.110Z,1017.37
2022-10-17T03:30:03.053Z,1017.40
2022-10-17T03:31:03.011Z,1017.30
2022-10-17T03:32:03.031Z,1017.39
2022-10-17T03:33:02.988Z,1017.43
2022-10-17T03:34:02.992Z,1017.42
2022-10-17T03:35:02.968Z,1017.42
2022-10-17T03:36:02.956Z,1017.38
2022-10-17T03:37:02.950Z,1017.37
2022-10-17T03:38:02.920Z,1017.41
2022-10-17T03:39:02.938Z,1017.45
2022-10-17T03:40:02.902Z,1017.41
2022-10-17T03:41:02.888Z,1017.40
2022-10-17T03:42:02.876Z,1017.39
2022-10-17T03:43:02.879Z,1017.39
2022-10-17T03:44:02.854Z,1017.41
2022-10-17T03:45:02.854Z,1017.40
2022-10-17T03:46:02.830Z,1017.38
2022-10-17T03:47:02.808Z,1017.38
2022-10-17T03:48:02.799Z,1017.34
2022-10-17T03:49:02.798Z,1017.37
2022-10-17T03:50:02.794Z,1017.36
2022-10-17T03:51:02.798Z,1017.30
2022-10-17T03:52:02.743Z,1017.33
2022-10-17T03:53:02.730Z,1017.44
2022-10-17T03:54:02.733Z,1017.40
2022-10-17T03:55:02.701Z,1017.41
2022-10-17T03:56:02.698Z,1017.38
2022-10-17T03:57:02.686Z,1017.44
2022-10-17T03:58:02.663Z,1017.38
2022-10-17T03:59:02.674Z,1017.38
2022-10-17T04:00:02.650Z,1017.34
2022-10-17T04:01:02.649Z,1017.37
2022-10-17T04:02:02.631Z,1017.35
2022-10-17T04:03:02.627Z,1017.38
2022-10-17T04:04:02.601Z,1017.33
2022-10-17T04:05:02.583Z,1017.38
2022-10-17T04:06:02.556Z,1017.34
2022-10-17T04:07:02.573Z,1017.33
2022-10-17T04:08:04.775Z,1017.33
2022-10-17T04:09:02.558Z,1017.37
2022-10-17T04:10:02.509Z,1017.31
2022-10-17T04:11:02.498Z,1017.29
2022-10-17T04:12:02.483Z,1017.26
2022-10-17T04:13:02.473Z,1017.29
2022-10-17T04:14:02.462Z,1017.35
2022-10-17T04:15:02.471Z,1017.26
2022-10-17T04:16:02.445Z,1017.33
2022-10-17T04:17:02.429Z,1017.26
2022-10-17T04:18:02.449Z,1017.26
2022-10-17T04:19:02.414Z,1017.34
2022-10-17T04:20:02.406Z,1017.30
2022-10-17T04:21:02.375Z,1017.29
2022-10-17T04:22:02.346Z,1017.28
2022-10-17T04:23:02.346Z,1017.35
2022-10-17T04:24:02.368Z,1017.30
2022-10-17T04:25:02.340Z,1017.28
2022-10-17T04:26:02.304Z,1017.22
2022-10-17T04:27:02.296Z,1017.29
2022-10-17T04:28:02.274Z,1017.26
2022-10-17T04:29:02.290Z,1017.27
2022-10-17T04:30:02.249Z,1017.24
2022-10-17T04:31:02.242Z,1017.16
2022-10-17T04:32:02.225Z,1017.19
2022-10-17T04:33:02.215Z,1017.18
2022-10-17T04:34:02.227Z,1017.14
2022-10-17T04:35:02.221Z,1017.16
2022-10-17T04:36:02.410Z,1017.14
2022-10-17T04:37:02.163Z,1017.13
2022-10-17T04:38:02.151Z,1017.18
2022-10-17T04:39:02.234Z,1017.15
2022-10-17T04:40:02.156Z,1017.10
2022-10-17T04:41:02.110Z,1017.06
2022-10-17T04:42:02.098Z,1017.11
2022-10-17T04:43:02.083Z,1017.13
2022-10-17T04:44:02.079Z,1017.13
2022-10-17T04:45:02.064Z,1017.19
2022-10-17T04:46:02.060Z,1017.10
2022-10-17T04:47:02.025Z,1017.12
2022-10-17T04:48:02.014Z,1017.07
2022-10-17T04:49:02.034Z,1017.09
2022-10-17T04:50:02.019Z,1017.00
2022-10-17T04:51:01.990Z,1017.08
2022-10-17T04:52:01.960Z,1017.07
2022-10-17T04:53:01.976Z,1017.06
2022-10-17T04:54:01.966Z,1017.07
2022-10-17T04:55:01.943Z,1017.05
2022-10-17T04:56:01.916Z,1017.08
2022-10-17T04:57:01.904Z,1017.08
2022-10-17T04:58:01.897Z,1017.07
2022-10-17T04:59:01.896Z,1017.02
2022-10-17T05:00:01.972Z,1017.10
2022-10-17T05:01:01.927Z,1017.07
2022-10-17T05:02:01.835Z,1017.17
2022-10-17T05:03:01.825Z,1017.15
2022-10-17T05:04:01.828Z,1017.13
2022-10-17T05:05:01.823Z,1017.13
2022-10-17T05:06:01.779Z,1017.17
2022-10-17T05:07:01.769Z,1017.16
2022-10-17T05:08:01.755Z,1017.13
2022-10-17T05:09:01.762Z,1017.11
2022-10-17T05:10:01.744Z,1017.06
2022-10-17T05:11:01.736Z,1017.08
2022-10-17T05:12:03.453Z,1017.06
2022-10-17T05:13:01.692Z,1017.03
2022-10-17T05:14:01.688Z,1017.02
2022-10-17T05:15:01.688Z,1016.91
2022-10-17T05:16:01.670Z,1016.98
2022-10-17T05:17:01.644Z,1017.00
2022-10-17T05:18:01.635Z,1016.99
2022-10-17T05:19:01.616Z,1016.97
2022-10-17T05:20:01.629Z,1016.98
2022-10-17T05:21:01.586Z,1016.95
2022-10-17T05:22:01.564Z,1016.96
2022-10-17T05:23:01.561Z,1016.92
2022-10-17T05:24:01.540Z,1016.95
2022-10-17T05:25:01.555Z,1016.96
2022-10-17T05:26:01.568Z,1017.00
2022-10-17T05:27:01.540Z,1016.98
2022-10-17T05:28:01.504Z,1017.02
2022-10-17T05:29:01.551Z,1016.95
2022-10-17T05:30:01.492Z,1016.97
2022-10-17T05:31:01.521Z,1016.95
2022-10-17T05:33:01.447Z,1017.02
2022-10-17T05:34:01.416Z,1016.92
2022-10-17T05:35:01.426Z,1016.97
2022-10-17T05:36:01.410Z,1017.00
2022-10-17T05:37:01.388Z,1016.92
2022-10-17T05:38:01.374Z,1016.99
2022-10-17T05:39:01.372Z,1017.01
2022-10-17T05:40:01.354Z,1017.01
2022-10-17T05:41:01.359Z,1017.02
2022-10-17T05:42:01.321Z,1017.13
2022-10-17T05:43:01.301Z,1016.99
2022-10-17T05:44:04.610Z,1017.04
2022-10-17T05:45:01.300Z,1016.99
2022-10-17T05:46:01.262Z,1017.00
2022-10-17T05:47:01.255Z,1016.95
2022-10-17T05:48:01.247Z,1016.97
2022-10-17T05:49:01.242Z,1016.92
2022-10-17T05:50:01.222Z,1017.11
2022-10-17T05:51:01.212Z,1016.97
2022-10-17T05:52:01.198Z,1016.97
2022-10-17T05:53:01.195Z,1017.00
2022-10-17T05:54:01.166Z,1016.94
2022-10-17T05:55:01.161Z,1016.92
2022-10-17T05:56:01.149Z,1016.88
2022-10-17T05:57:01.127Z,1016.88
2022-10-17T05:58:01.112Z,1016.88
2022-10-17T05:59:01.281Z,1016.90
2022-10-17T06:00:01.087Z,1016.87
2022-10-17T06:01:01.074Z,1016.87
2022-10-17T06:02:01.105Z,1016.87
2022-10-17T06:03:01.055Z,1016.92
2022-10-17T06:04:01.036Z,1016.95
2022-10-17T06:05:01.041Z,1016.94
2022-10-17T06:06:01.280Z,1016.96
2022-10-17T06:07:01.012Z,1016.96
2022-10-17T06:08:02.062Z,1016.89
2022-10-17T06:09:00.987Z,1016.92
2022-10-17T06:10:00.965Z,1016.95
2022-10-17T06:11:01.694Z,1016.90
2022-10-17T06:12:00.924Z,1016.96
2022-10-17T06:13:00.911Z,1016.90
2022-10-17T06:14:00.928Z,1016.90
2022-10-17T06:15:00.933Z,1016.98
2022-10-17T06:16:00.886Z,1016.97
2022-10-17T06:17:00.863Z,1016.90
2022-10-17T06:18:00.868Z,1016.81
2022-10-17T06:19:00.840Z,1016.86
2022-10-17T06:20:00.870Z,1016.81
2022-10-17T06:21:00.812Z,1016.88
2022-10-17T06:22:00.829Z,1016.82
2022-10-17T06:23:00.786Z,1016.82
2022-10-17T06:24:00.785Z,1016.80
2022-10-17T06:25:00.773Z,1016.80
2022-10-17T06:26:00.744Z,1016.86
2022-10-17T06:27:00.740Z,1016.89
2022-10-17T06:28:00.718Z,1016.84
2022-10-17T06:29:00.790Z,1016.81
2022-10-17T06:30:00.703Z,1016.79
2022-10-17T06:31:00.706Z,1016.79
2022-10-17T06:32:00.659Z,1016.80
2022-10-17T06:33:00.655Z,1016.85
2022-10-17T06:34:00.644Z,1016.78
2022-10-17T06:35:00.656Z,1016.79
2022-10-17T06:36:00.644Z,1016.78
2022-10-17T06:37:00.612Z,1016.78
2022-10-17T06:38:00.586Z,1016.86
2022-10-17T06:39:00.601Z,1016.79
2022-10-17T06:40:00.585Z,1016.78
2022-10-17T06:41:00.565Z,1016.83
2022-10-17T06:42:00.563Z,1016.79
2022-10-17T06:43:00.550Z,1016.81
2022-10-17T06:44:00.510Z,1016.77
2022-10-17T06:45:00.511Z,1016.80
2022-10-17T06:46:00.544Z,1016.86
2022-10-17T06:47:00.474Z,1016.86
2022-10-17T06:48:00.470Z,1016.81
2022-10-17T06:49:00.447Z,1016.88
2022-10-17T06:50:00.451Z,1016.80
2022-10-17T06:51:00.446Z,1016.80
2022-10-17T06:52:00.402Z,1016.87
2022-10-17T06:53:00.396Z,1016.83
2022-10-17T06:54:00.383Z,1016.85
2022-10-17T06:55:00.528Z,1016.91
2022-10-17T06:56:00.382Z,1016.98
2022-10-17T06:57:00.359Z,1016.93
2022-10-17T06:58:00.325Z,1016.90
2022-10-17T06:59:00.323Z,1016.93
2022-10-17T07:00:00.306Z,1016.98
2022-10-17T07:01:01.029Z,1017.02
2022-10-17T07:02:00.293Z,1017.05
2022-10-17T07:03:00.508Z,1016.98
2022-10-17T07:04:00.295Z,1016.98
2022-10-17T07:05:00.249Z,1016.91
2022-10-17T07:06:00.249Z,1016.91
2022-10-17T07:07:00.275Z,1016.92
2022-10-17T07:08:04.897Z,1016.95
2022-10-17T07:09:00.202Z,1016.89
2022-10-17T07:10:00.283Z,1016.87
2022-10-17T07:11:00.179Z,1016.81
2022-10-17T07:12:00.156Z,1016.90
2022-10-17T07:13:00.160Z,1016.88
2022-10-17T07:14:00.158Z,1016.90
2022-10-17T07:15:00.145Z,1016.96
2022-10-17T07:16:00.231Z,1016.97
2022-10-17T07:17:00.117Z,1017.01
2022-10-17T07:18:00.107Z,1017.01
2022-10-17T07:19:00.063Z,1017.09
2022-10-17T07:20:00.069Z,1017.16
2022-10-17T07:21:00.044Z,1017.18
2022-10-17T07:22:00.027Z,1017.18
2022-10-17T07:23:00.051Z,1017.10
2022-10-17T07:24:00.005Z,1017.09
2022-10-17T07:24:59.984Z,1017.07
2022-10-17T07:26:00.637Z,1017.12
2022-10-17T07:26:59.965Z,1017.12
2022-10-17T07:27:59.940Z,1017.16
2022-10-17T07:28:59.965Z,1017.11
2022-10-17T07:29:59.923Z,1017.20
2022-10-17T07:30:59.920Z,1017.09
2022-10-17T07:31:59.903Z,1017.09
2022-10-17T07:32:59.904Z,1017.10
2022-10-17T07:33:59.883Z,1017.04
2022-10-17T07:34:59.938Z,1017.05
2022-10-17T07:35:59.844Z,1017.08
2022-10-17T07:36:59.838Z,1017.12
2022-10-17T07:37:59.828Z,1017.09
2022-10-17T07:38:59.809Z,1017.10
2022-10-17T07:39:59.792Z,1017.17
2022-10-17T07:40:59.789Z,1017.16
2022-10-17T07:41:59.775Z,1017.20
2022-10-17T07:42:59.760Z,1017.17
2022-10-17T07:44:00.029Z,1017.14
2022-10-17T07:44:59.732Z,1017.12
2022-10-17T07:45:59.701Z,1017.11
2022-10-17T07:46:59.716Z,1017.14
2022-10-17T07:47:59.715Z,1017.19
2022-10-17T07:48:59.667Z,1017.17
2022-10-17T07:49:59.693Z,1017.24
2022-10-17T07:50:59.649Z,1017.22
2022-10-17T07:51:59.656Z,1017.33
2022-10-17T07:52:59.638Z,1017.25
2022-10-17T07:53:59.617Z,1017.17
2022-10-17T07:54:59.600Z,1017.20
2022-10-17T07:55:59.588Z,1017.26
2022-10-17T07:56:59.584Z,1017.23
2022-10-17T07:57:59.571Z,1017.25
2022-10-17T07:59:01.684Z,1017.28
2022-10-17T07:59:59.537Z,1017.24
2022-10-17T08:00:59.599Z,1017.23
2022-10-17T08:01:59.521Z,1017.27
2022-10-17T08:02:59.519Z,1017.22
2022-10-17T08:03:59.500Z,1017.27
2022-10-17T08:04:59.470Z,1017.28
2022-10-17T08:05:59.780Z,1017.27
2022-10-17T08:07:11.597Z,1017.22
2022-10-17T08:08:00.437Z,1017.17
2022-10-17T08:08:59.434Z,1017.05
2022-10-17T08:09:59.482Z,1017.15
2022-10-17T08:10:59.378Z,1017.18
2022-10-17T08:11:59.747Z,1017.12
2022-10-17T08:12:59.363Z,1017.14
2022-10-17T08:13:59.349Z,1017.13
2022-10-17T08:14:59.357Z,1017.11
2022-10-17T08:15:59.321Z,1017.11
2022-10-17T08:16:59.345Z,1017.09
2022-10-17T08:17:59.299Z,1017.07
2022-10-17T08:18:59.360Z,1017.12
2022-10-17T08:19:59.285Z,1017.05
2022-10-17T08:21:02.157Z,1017.14
2022-10-17T08:21:59.251Z,1016.97
2022-10-17T08:22:59.230Z,1016.94
2022-10-17T08:23:59.217Z,1016.97
2022-10-17T08:24:59.194Z,1016.85
2022-10-17T08:25:59.197Z,1016.78
2022-10-17T08:26:59.177Z,1016.91
2022-10-17T08:27:59.190Z,1016.77
2022-10-17T08:28:59.185Z,1016.80
2022-10-17T08:29:59.164Z,1016.79
2022-10-17T08:30:59.117Z,1016.83
2022-10-17T08:32:01.095Z,1016.81
2022-10-17T08:32:59.094Z,1016.85
2022-10-17T08:33:59.086Z,1016.82
2022-10-17T08:34:59.062Z,1016.85
2022-10-17T08:35:59.054Z,1016.85
2022-10-17T08:36:59.156Z,1016.80
2022-10-17T08:37:59.031Z,1016.86
2022-10-17T08:38:59.018Z,1016.73
2022-10-17T08:39:59.022Z,1016.73
2022-10-17T08:40:59.012Z,1016.65
2022-10-17T08:41:58.993Z,1016.64
2022-10-17T08:42:59.005Z,1016.64
2022-10-17T08:43:58.953Z,1016.72
2022-10-17T08:44:58.941Z,1016.66
2022-10-17T08:45:58.923Z,1016.67
2022-10-17T08:46:58.910Z,1016.68
2022-10-17T08:47:58.949Z,1016.70
2022-10-17T08:48:58.880Z,1016.67
2022-10-17T08:49:58.880Z,1016.64
2022-10-17T08:50:58.892Z,1016.62
2022-10-17T08:51:58.882Z,1016.60
2022-10-17T08:52:58.853Z,1016.68
2022-10-17T08:53:58.836Z,1016.72
2022-10-17T08:54:58.805Z,1016.76
2022-10-17T08:55:58.792Z,1016.74
2022-10-17T08:56:58.791Z,1016.83
2022-10-17T08:57:58.760Z,1016.91
2022-10-17T08:58:58.746Z,1016.86
2022-10-17T08:59:58.748Z,1016.89
2022-10-17T09:00:58.746Z,1016.91
2022-10-17T09:01:58.723Z,1016.90
2022-10-17T09:02:58.788Z,1016.89
2022-10-17T09:03:58.683Z,1016.87
2022-10-17T09:04:58.705Z,1016.83
2022-10-17T09:05:58.683Z,1016.89
2022-10-17T09:06:58.672Z,1016.90
2022-10-17T09:07:58.678Z,1016.94
2022-10-17T09:08:58.632Z,1016.88
2022-10-17T09:09:58.642Z,1016.86
2022-10-17T09:10:58.615Z,1016.86
2022-10-17T09:11:58.581Z,1016.94
2022-10-17T09:12:58.591Z,1016.93
2022-10-17T09:13:58.552Z,1016.90
2022-10-17T09:14:58.540Z,1016.85
2022-10-17T09:15:58.671Z,1016.76
2022-10-17T09:16:58.512Z,1016.86
2022-10-17T09:17:58.527Z,1016.77
2022-10-17T09:18:58.479Z,1016.82
2022-10-17T09:19:58.480Z,1016.84
2022-10-17T09:20:58.465Z,1016.86
2022-10-17T09:21:58.462Z,1016.84
2022-10-17T09:22:58.484Z,1016.82
2022-10-17T09:24:08.989Z,1016.90
2022-10-17T09:24:59.416Z,1016.90
2022-10-17T09:25:58.401Z,1016.87
2022-10-17T09:26:58.389Z,1016.90
2022-10-17T09:27:58.382Z,1016.93
2022-10-17T09:28:58.388Z,1016.96
2022-10-17T09:29:58.365Z,1016.94
2022-10-17T09:30:58.348Z,1016.97
2022-10-17T09:32:58.330Z,1017.00
2022-10-17T09:33:58.337Z,1017.01
2022-10-17T09:34:58.293Z,1017.00
2022-10-17T09:35:58.278Z,1017.00
2022-10-17T09:36:58.254Z,1017.02
2022-10-17T09:37:58.265Z,1017.03
2022-10-17T09:38:58.232Z,1017.01
2022-10-17T09:39:58.226Z,1017.00
2022-10-17T09:40:58.272Z,1016.98
2022-10-17T09:41:58.204Z,1016.90
2022-10-17T09:42:58.233Z,1016.94
2022-10-17T09:43:58.172Z,1016.93
2022-10-17T09:44:58.163Z,1016.92
2022-10-17T09:45:58.166Z,1016.92
2022-10-17T09:46:58.150Z,1016.89
2022-10-17T09:48:00.913Z,1016.87
2022-10-17T09:48:58.166Z,1016.93
2022-10-17T09:49:58.106Z,1016.88
2022-10-17T09:51:14.835Z,1016.89
2022-10-17T09:51:59.071Z,1016.95
2022-10-17T09:52:58.054Z,1016.90
2022-10-17T09:53:59.990Z,1016.88
2022-10-17T09:54:58.026Z,1016.84
2022-10-17T09:55:58.047Z,1016.84
2022-10-17T09:56:58.003Z,1016.82
2022-10-17T09:57:58.031Z,1016.88
2022-10-17T09:58:57.984Z,1016.85
2022-10-17T09:59:57.984Z,1016.92
2022-10-17T10:00:58.002Z,1016.93
2022-10-17T10:01:57.955Z,1016.86
2022-10-17T10:02:57.953Z,1016.93
2022-10-17T10:03:57.920Z,1016.96
2022-10-17T10:05:06.617Z,1016.93
2022-10-17T10:05:58.882Z,1016.94
2022-10-17T10:06:57.870Z,1016.93
2022-10-17T10:07:57.879Z,1016.89
2022-10-17T10:08:57.853Z,1016.95
2022-10-17T10:09:57.843Z,1016.83
2022-10-17T10:10:57.996Z,1016.84
2022-10-17T10:11:57.813Z,1016.86
2022-10-17T10:12:57.816Z,1016.88
2022-10-17T10:13:57.810Z,1016.91
2022-10-17T10:14:57.787Z,1016.88
2022-10-17T10:15:57.762Z,1016.90
2022-10-17T10:16:57.741Z,1016.91
2022-10-17T10:17:57.737Z,1016.93
2022-10-17T10:18:57.724Z,1016.94
2022-10-17T10:19:57.735Z,1016.95
2022-10-17T10:20:57.685Z,1017.02
2022-10-17T10:21:57.685Z,1017.04
2022-10-17T10:22:58.255Z,1017.08
2022-10-17T10:23:57.663Z,1017.07
2022-10-17T10:24:57.629Z,1017.06
2022-10-17T10:25:57.635Z,1017.02
2022-10-17T10:26:57.608Z,1017.15
2022-10-17T10:27:59.405Z,1017.12
2022-10-17T10:28:57.622Z,1017.12
2022-10-17T10:29:57.583Z,1017.10
2022-10-17T10:30:57.553Z,1017.12
2022-10-17T10:31:57.554Z,1017.14
2022-10-17T10:32:57.543Z,1017.18
2022-10-17T10:33:57.733Z,1017.21
2022-10-17T10:34:57.505Z,1017.10
2022-10-17T10:35:57.504Z,1017.12
2022-10-17T10:36:57.483Z,1017.10
2022-10-17T10:37:57.505Z,1017.03
2022-10-17T10:38:59.210Z,1016.98
2022-10-17T10:40:06.049Z,1016.97
2022-10-17T10:40:57.418Z,1016.98
2022-10-17T10:41:57.418Z,1016.93
2022-10-17T10:43:00.253Z,1016.91
2022-10-17T10:43:58.410Z,1016.95
2022-10-17T10:44:57.388Z,1016.96
2022-10-17T10:45:57.378Z,1016.98
2022-10-17T10:46:57.366Z,1017.02
2022-10-17T10:47:57.336Z,1016.99
2022-10-17T10:48:57.341Z,1017.04
2022-10-17T10:49:57.325Z,1017.01
2022-10-17T10:50:57.303Z,1017.04
2022-10-17T10:51:57.299Z,1017.01
2022-10-17T10:52:57.312Z,1017.08
2022-10-17T10:53:57.306Z,1017.11
2022-10-17T10:54:57.244Z,1017.10
2022-10-17T10:55:58.688Z,1017.03
2022-10-17T10:56:57.240Z,1017.06
2022-10-17T10:57:57.230Z,1017.05
2022-10-17T10:58:57.302Z,1017.13
2022-10-17T10:59:57.185Z,1017.16
2022-10-17T11:00:57.253Z,1017.14
2022-10-17T11:01:57.201Z,1017.14
2022-10-17T11:02:57.154Z,1017.16
2022-10-17T11:03:57.157Z,1017.27
2022-10-17T11:04:57.119Z,1017.21
2022-10-17T11:05:57.107Z,1017.15
2022-10-17T11:06:57.114Z,1017.12
2022-10-17T11:07:57.083Z,1017.10
2022-10-17T11:08:57.081Z,1017.16
2022-10-17T11:09:57.056Z,1017.11
2022-10-17T11:10:57.074Z,1017.11
2022-10-17T11:11:57.023Z,1017.09
2022-10-17T11:12:57.028Z,1017.09
2022-10-17T11:13:57.015Z,1017.12
2022-10-17T11:14:56.998Z,1017.17
2022-10-17T11:15:56.983Z,1017.15
2022-10-17T11:16:56.966Z,1017.12
2022-10-17T11:17:56.952Z,1017.13
2022-10-17T11:18:56.937Z,1017.19
2022-10-17T11:19:56.920Z,1017.24
2022-10-17T11:20:56.901Z,1017.17
2022-10-17T11:21:56.911Z,1017.17
2022-10-17T11:22:56.887Z,1017.17
2022-10-17T11:23:56.868Z,1017.26
2022-10-17T11:24:56.862Z,1017.25
2022-10-17T11:25:56.839Z,1017.28
2022-10-17T11:26:58.291Z,1017.23
2022-10-17T11:27:59.822Z,1017.28
2022-10-17T11:28:57.965Z,1017.24
2022-10-17T11:29:56.779Z,1017.23
2022-10-17T11:30:56.789Z,1017.21
2022-10-17T11:31:56.800Z,1017.22
2022-10-17T11:32:56.754Z,1017.21
2022-10-17T11:33:56.744Z,1017.22
2022-10-17T11:34:56.711Z,1017.15
2022-10-17T11:35:58.711Z,1017.14
2022-10-17T11:36:56.689Z,1017.14
2022-10-17T11:37:56.709Z,1017.16
2022-10-17T11:38:56.662Z,1017.12
2022-10-17T11:39:56.643Z,1017.13
2022-10-17T11:41:00.418Z,1017.11
2022-10-17T11:41:58.132Z,1017.08
2022-10-17T11:42:56.601Z,1017.02
2022-10-17T11:43:56.619Z,1017.02
2022-10-17T11:44:56.594Z,1017.07
2022-10-17T11:45:56.586Z,1016.99
2022-10-17T11:46:56.554Z,1016.99
2022-10-17T11:47:56.543Z,1017.01
2022-10-17T11:48:56.538Z,1017.09
2022-10-17T11:49:56.575Z,1017.17
2022-10-17T11:52:00.867Z,1017.10
2022-10-17T11:52:57.088Z,1017.07
2022-10-17T11:53:56.460Z,1016.97
2022-10-17T11:54:56.450Z,1017.07
2022-10-17T11:55:56.453Z,1017.00
2022-10-17T11:56:56.425Z,1017.09
2022-10-17T11:57:56.408Z,1017.10
2022-10-17T11:58:56.406Z,1017.16
2022-10-17T11:59:56.388Z,1017.24
2022-10-17T12:00:56.387Z,1017.24
2022-10-17T12:01:56.413Z,1017.21
2022-10-17T12:02:56.329Z,1017.25
2022-10-17T12:03:56.383Z,1017.27
2022-10-17T12:04:56.312Z,1017.37
2022-10-17T12:05:58.255Z,1017.47
2022-10-17T12:06:57.747Z,1017.54
2022-10-17T12:07:56.340Z,1017.63
2022-10-17T12:08:56.442Z,1017.68